Overview Statistics Trail Chart Weather Telemetry Raw packets
 

This is the latest recevied weather packets stored in our database for station/object KF0RZX-13. If no packets are shown the sender has not sent any weather packets the latest 10 day(s).

<< 1 2 3 4 >>
Time Temp. Humidity Pressure Rain* Wind** Luminosity Snow
1788382022 32.22° C 18% 1016.6 hPa 0 mm - - -
1788380217 32.22° C 18% 1016.9 hPa 0 mm - - -
1788378411 31.11° C 19% 1016.9 hPa 0 mm - - -
1788376606 30° C 21% 1017.9 hPa 0 mm - - -
1788374801 31.11° C 21% 1017.9 hPa 0 mm - - -
1788372996 28.89° C 23% 1018.6 hPa 0 mm - - -
1788371192 28.89° C 25% 1019 hPa 0 mm - - -
1788369388 27.78° C 25% 1019.3 hPa 0 mm - - -
1788367582 27.78° C 25% 1019.3 hPa 0 mm - - -
1788365779 27.78° C 25% 1019.3 hPa 0 mm - - -
1788363971 27.78° C 27% 1019.3 hPa 0 mm - - -
1788362170 23.89° C 38% 1019.3 hPa 0 mm - - -
1788360361 22.22° C 46% 1019.3 hPa 0 mm - - -
1788358552 21.11° C 49% 1019 hPa 0 mm - - -
1788356746 20° C 53% 1019 hPa 0 mm - - -
1788354944 16.11° C 68% 1018.6 hPa 0 mm - - -
1788353125 16.11° C 68% 1018.6 hPa 0 mm - - -
1788351316 16.11° C 72% 1018.3 hPa 0 mm - - -
1788349511 16.11° C 72% 1018.3 hPa 0 mm - - -
1788347708 16.11° C 63% 1017.9 hPa 0 mm - - -
1788345901 16.11° C 63% 1017.6 hPa 0 mm - - -
1788344097 16.11° C 63% 1017.9 hPa 0 mm - - -
1788342291 16.11° C 63% 1017.9 hPa 0 mm - - -
1788340487 15° C 67% 1017.9 hPa 0 mm - - -
1788338681 15° C 67% 1017.9 hPa 0 mm - - -

* Rain latest hour (hover to see other rain measurements)
** Current wind speed in m/s (hover to see current wind gust speed)